createdAt,value
2017-06-09T00:00:52.925Z,52.00
2017-06-09T00:03:20.495Z,51.90
2017-06-09T00:05:48.758Z,51.80
2017-06-09T00:08:16.323Z,51.70
2017-06-09T00:10:43.883Z,51.90
2017-06-09T00:13:11.362Z,52.00
2017-06-09T00:15:38.893Z,52.00
2017-06-09T00:18:06.354Z,52.20
2017-06-09T00:20:33.911Z,52.30
2017-06-09T00:23:01.461Z,52.10
2017-06-09T00:25:28.935Z,52.20
2017-06-09T00:27:57.203Z,52.50
2017-06-09T00:30:24.680Z,52.40
2017-06-09T00:32:52.920Z,52.40
2017-06-09T00:35:20.492Z,52.40
2017-06-09T00:37:48.724Z,52.00
2017-06-09T00:40:16.218Z,52.40
2017-06-09T00:42:43.783Z,52.70
2017-06-09T00:45:12.015Z,53.30
2017-06-09T00:47:39.509Z,52.80
2017-06-09T00:50:07.170Z,52.80
2017-06-09T00:52:34.731Z,52.90
2017-06-09T00:55:02.197Z,53.00
2017-06-09T00:57:30.469Z,53.10
2017-06-09T00:59:58.733Z,53.00
2017-06-09T01:02:26.299Z,52.90
2017-06-09T01:04:53.771Z,52.90
2017-06-09T01:07:22.027Z,53.00
2017-06-09T01:09:49.499Z,53.00
2017-06-09T01:12:17.767Z,53.30
2017-06-09T01:14:46.029Z,53.50
2017-06-09T01:17:13.523Z,53.40
2017-06-09T01:19:40.984Z,53.50
2017-06-09T01:22:08.455Z,53.50
2017-06-09T01:24:35.958Z,53.50
2017-06-09T01:27:03.439Z,53.50
2017-06-09T01:29:31.693Z,53.70
2017-06-09T01:31:59.188Z,53.70
2017-06-09T01:34:26.658Z,53.80
2017-06-09T01:36:54.114Z,53.90
2017-06-09T01:39:21.621Z,54.00
2017-06-09T01:41:49.188Z,54.00
2017-06-09T01:44:17.430Z,54.50
2017-06-09T01:46:44.901Z,53.90
2017-06-09T01:49:12.364Z,54.00
2017-06-09T01:51:39.851Z,54.00
2017-06-09T01:54:08.085Z,54.40
2017-06-09T01:56:35.671Z,54.30
2017-06-09T01:59:03.933Z,54.50
2017-06-09T02:01:31.489Z,54.40
2017-06-09T02:03:59.059Z,54.40
2017-06-09T02:06:27.335Z,54.50
2017-06-09T02:08:55.805Z,54.50
2017-06-09T02:11:23.369Z,54.50
2017-06-09T02:13:50.839Z,54.60
2017-06-09T02:16:19.107Z,54.60
2017-06-09T02:18:47.348Z,54.80
2017-06-09T02:21:14.831Z,54.70
2017-06-09T02:23:42.303Z,54.80
2017-06-09T02:26:10.579Z,55.40
2017-06-09T02:28:38.810Z,55.10
2017-06-09T02:31:06.307Z,55.10
2017-06-09T02:33:34.579Z,55.30
2017-06-09T02:36:02.851Z,55.30
2017-06-09T02:38:31.090Z,55.30
2017-06-09T02:40:58.579Z,55.30
2017-06-09T02:43:26.144Z,55.60
2017-06-09T02:45:54.406Z,55.60
2017-06-09T02:48:21.879Z,55.50
2017-06-09T02:50:50.148Z,55.60
2017-06-09T02:53:17.715Z,55.60
2017-06-09T02:55:45.991Z,55.90
2017-06-09T02:58:14.258Z,55.60
2017-06-09T03:00:42.531Z,55.60
2017-06-09T03:03:09.998Z,55.70
2017-06-09T03:05:38.226Z,55.60
2017-06-09T03:08:05.698Z,55.50
2017-06-09T03:10:33.170Z,55.40
2017-06-09T03:13:00.641Z,55.60
2017-06-09T03:15:28.908Z,55.80
2017-06-09T03:17:57.147Z,56.10
2017-06-09T03:20:24.646Z,55.70
2017-06-09T03:22:52.890Z,56.30
2017-06-09T03:25:20.379Z,55.60
2017-06-09T03:27:48.647Z,56.30
2017-06-09T03:30:16.109Z,56.20
2017-06-09T03:32:50.140Z,56.30
2017-06-09T03:35:17.602Z,56.00
2017-06-09T03:37:45.130Z,55.90
2017-06-09T03:40:13.399Z,56.00
2017-06-09T03:42:40.875Z,56.40
2017-06-09T03:45:09.132Z,55.90
2017-06-09T03:47:36.603Z,55.90
2017-06-09T03:50:04.872Z,56.00
2017-06-09T03:52:33.135Z,55.90
2017-06-09T03:55:00.689Z,55.80
2017-06-09T03:57:28.253Z,56.00
2017-06-09T03:59:55.819Z,56.10
2017-06-09T04:02:23.286Z,56.20
2017-06-09T04:04:51.530Z,56.10
2017-06-09T04:07:18.997Z,56.10
2017-06-09T04:09:46.478Z,56.00
2017-06-09T04:12:14.738Z,55.80
2017-06-09T04:14:42.998Z,55.50
2017-06-09T04:17:10.464Z,55.40
2017-06-09T04:19:37.940Z,55.40
2017-06-09T04:22:06.207Z,55.50
2017-06-09T04:24:34.574Z,55.00
2017-06-09T04:27:02.135Z,54.80
2017-06-09T04:29:29.612Z,55.00
2017-06-09T04:31:57.919Z,54.90
2017-06-09T04:34:25.427Z,54.80
2017-06-09T04:36:52.903Z,54.60
2017-06-09T04:39:21.166Z,54.20
2017-06-09T04:41:49.438Z,54.30
2017-06-09T04:44:17.713Z,54.10
2017-06-09T04:46:45.990Z,53.90
2017-06-09T04:49:14.226Z,53.80
2017-06-09T04:51:41.702Z,53.70
2017-06-09T04:54:09.182Z,53.50
2017-06-09T04:56:37.459Z,53.40
2017-06-09T04:59:05.686Z,53.10
2017-06-09T05:01:33.195Z,53.10
2017-06-09T05:04:01.421Z,52.90
2017-06-09T05:06:28.896Z,53.00
2017-06-09T05:08:56.375Z,53.00
2017-06-09T05:11:24.619Z,52.80
2017-06-09T05:13:52.090Z,52.30
2017-06-09T05:16:19.554Z,52.20
2017-06-09T05:18:47.026Z,51.90
2017-06-09T05:21:15.255Z,51.90
2017-06-09T05:23:48.568Z,52.40
2017-06-09T05:26:16.027Z,52.10
2017-06-09T05:28:43.495Z,51.90
2017-06-09T05:31:10.957Z,51.80
2017-06-09T05:33:39.236Z,51.90
2017-06-09T05:36:07.458Z,51.70
2017-06-09T05:38:35.776Z,52.00
2017-06-09T05:41:03.251Z,51.80
2017-06-09T05:43:30.713Z,52.00
2017-06-09T05:45:58.967Z,51.80
2017-06-09T05:48:26.527Z,51.60
2017-06-09T05:50:53.990Z,51.80
2017-06-09T05:53:22.227Z,52.20
2017-06-09T05:55:49.685Z,51.50
2017-06-09T05:58:17.147Z,51.50
2017-06-09T06:00:44.609Z,51.70
2017-06-09T06:03:12.077Z,51.30
2017-06-09T06:05:39.558Z,51.20
2017-06-09T06:08:07.820Z,50.80
2017-06-09T06:10:35.371Z,50.80
2017-06-09T06:13:02.834Z,50.90
2017-06-09T06:15:31.106Z,51.30
2017-06-09T06:17:58.663Z,50.70
2017-06-09T06:20:26.221Z,50.60
2017-06-09T06:22:53.783Z,50.80
2017-06-09T06:25:21.334Z,50.60
2017-06-09T06:27:48.794Z,50.10
2017-06-09T06:30:16.359Z,50.00
2017-06-09T06:32:43.921Z,49.50
2017-06-09T06:35:12.146Z,50.10
2017-06-09T06:37:39.619Z,49.40
2017-06-09T06:40:07.107Z,49.60
2017-06-09T06:42:34.653Z,49.60
2017-06-09T06:45:02.227Z,49.60
2017-06-09T06:47:30.453Z,48.90
2017-06-09T06:49:57.942Z,48.90
2017-06-09T06:52:25.418Z,49.10
2017-06-09T06:54:53.647Z,49.60
2017-06-09T06:57:21.108Z,49.40
2017-06-09T06:59:48.586Z,49.20
2017-06-09T07:02:16.162Z,49.40
2017-06-09T07:04:44.425Z,50.00
2017-06-09T07:07:11.885Z,49.20
2017-06-09T07:09:39.466Z,49.60
2017-06-09T07:12:07.722Z,49.00
2017-06-09T07:14:35.306Z,48.80
2017-06-09T07:17:02.785Z,48.80
2017-06-09T07:19:30.301Z,48.70
2017-06-09T07:21:58.558Z,48.90
2017-06-09T07:24:26.132Z,48.70
2017-06-09T07:26:53.594Z,48.70
2017-06-09T07:29:21.909Z,48.60
2017-06-09T07:31:49.375Z,48.50
2017-06-09T07:34:16.847Z,48.70
2017-06-09T07:36:44.336Z,49.00
2017-06-09T07:39:11.886Z,48.60
2017-06-09T07:41:39.367Z,48.40
2017-06-09T07:44:06.821Z,48.20
2017-06-09T07:46:35.090Z,48.20
2017-06-09T07:49:03.317Z,48.20
2017-06-09T07:51:30.787Z,48.10
2017-06-09T07:53:58.256Z,47.40
2017-06-09T07:56:25.722Z,46.90
2017-06-09T07:58:53.194Z,46.90
2017-06-09T08:01:21.425Z,47.10
2017-06-09T08:03:48.891Z,47.10
2017-06-09T08:06:16.373Z,46.70
2017-06-09T08:08:43.831Z,46.20
2017-06-09T08:11:12.054Z,45.50
2017-06-09T08:13:39.527Z,45.40
2017-06-09T08:16:07.005Z,45.60
2017-06-09T08:18:34.584Z,46.20
2017-06-09T08:21:02.824Z,45.80
2017-06-09T08:23:30.298Z,45.70
2017-06-09T08:25:57.859Z,45.40
2017-06-09T08:28:25.327Z,45.30
2017-06-09T08:30:53.571Z,44.70
2017-06-09T08:33:21.049Z,44.50
2017-06-09T08:35:48.603Z,44.20
2017-06-09T08:38:16.068Z,43.90
2017-06-09T08:40:43.613Z,43.90
2017-06-09T08:43:11.105Z,44.30
2017-06-09T08:45:38.570Z,44.00
2017-06-09T08:48:06.083Z,44.20
2017-06-09T08:50:33.701Z,43.90
2017-06-09T08:53:01.202Z,43.70
2017-06-09T08:55:28.775Z,43.20
2017-06-09T08:57:57.049Z,43.60
2017-06-09T09:00:24.601Z,43.10
2017-06-09T09:02:52.058Z,43.30
2017-06-09T09:05:19.615Z,42.50
2017-06-09T09:07:47.178Z,42.40
2017-06-09T09:10:14.646Z,42.80
2017-06-09T09:12:42.911Z,41.80
2017-06-09T09:15:10.467Z,41.70
2017-06-09T09:17:38.026Z,41.10
2017-06-09T09:20:05.583Z,40.40
2017-06-09T09:22:33.137Z,40.40
2017-06-09T09:25:00.606Z,39.70
2017-06-09T09:27:28.162Z,39.00
2017-06-09T09:29:55.718Z,37.20
2017-06-09T09:32:23.275Z,36.40
2017-06-09T09:34:50.739Z,36.50
2017-06-09T09:37:19.011Z,37.30
2017-06-09T09:39:46.570Z,37.20
2017-06-09T09:42:14.813Z,35.80
2017-06-09T09:44:42.270Z,35.20
2017-06-09T09:47:09.747Z,35.80
2017-06-09T09:49:37.209Z,35.30
2017-06-09T09:52:04.679Z,34.70
2017-06-09T09:54:32.150Z,35.10
2017-06-09T09:56:59.677Z,36.00
2017-06-09T09:59:27.246Z,36.20
2017-06-09T10:01:55.476Z,36.40
2017-06-09T10:04:22.966Z,36.10
2017-06-09T10:06:50.531Z,35.60
2017-06-09T10:09:20.902Z,36.40
2017-06-09T10:11:48.463Z,35.60
2017-06-09T10:14:15.962Z,35.00
2017-06-09T10:16:43.421Z,35.10
2017-06-09T10:19:10.974Z,35.50
2017-06-09T10:21:38.453Z,34.80
2017-06-09T10:24:06.694Z,34.80
2017-06-09T10:26:34.156Z,34.70
2017-06-09T10:29:01.622Z,34.00
2017-06-09T10:31:29.189Z,34.80
2017-06-09T10:33:56.766Z,34.80
2017-06-09T10:36:25.022Z,33.60
2017-06-09T10:38:52.635Z,33.50
2017-06-09T10:41:20.103Z,33.50
2017-06-09T10:43:47.594Z,32.50
2017-06-09T10:46:15.075Z,30.60
2017-06-09T10:48:43.316Z,31.80
2017-06-09T10:51:10.781Z,31.80
2017-06-09T10:53:38.241Z,30.60
2017-06-09T10:56:05.725Z,30.60
2017-06-09T10:58:33.271Z,30.00
2017-06-09T11:01:01.526Z,29.70
2017-06-09T11:03:29.102Z,29.60
2017-06-09T11:05:57.367Z,30.00
2017-06-09T11:08:24.933Z,30.00
2017-06-09T11:10:52.489Z,30.60
2017-06-09T11:13:20.988Z,30.10
2017-06-09T11:15:49.245Z,30.10
2017-06-09T11:18:17.478Z,30.80
2017-06-09T11:20:44.975Z,30.70
2017-06-09T11:23:12.568Z,29.40
2017-06-09T11:25:40.081Z,28.60
2017-06-09T11:28:07.546Z,28.40
2017-06-09T11:30:35.153Z,28.20
2017-06-09T11:33:02.616Z,28.20
2017-06-09T11:35:30.109Z,28.00
2017-06-09T11:37:57.578Z,27.50
2017-06-09T11:40:25.126Z,28.80
2017-06-09T11:42:52.685Z,28.40
2017-06-09T11:45:20.253Z,28.20
2017-06-09T11:47:47.720Z,28.00
2017-06-09T11:50:15.981Z,27.20
2017-06-09T11:52:43.455Z,27.10
2017-06-09T11:55:11.719Z,29.20
2017-06-09T11:57:39.964Z,28.50
2017-06-09T12:00:07.442Z,27.90
2017-06-09T12:02:34.997Z,27.40
2017-06-09T12:05:02.474Z,27.40
2017-06-09T12:07:30.749Z,26.80
2017-06-09T12:09:58.984Z,27.10
2017-06-09T12:12:26.456Z,27.10
2017-06-09T12:14:53.917Z,25.80
2017-06-09T12:17:21.390Z,25.40
2017-06-09T12:19:49.626Z,24.90
2017-06-09T12:22:17.113Z,24.80
2017-06-09T12:24:45.353Z,23.50
2017-06-09T12:27:12.842Z,23.40
2017-06-09T12:29:40.408Z,22.80
2017-06-09T12:32:08.673Z,22.20
2017-06-09T12:39:23.333Z,21.70
2017-06-09T12:41:50.790Z,22.70
2017-06-09T12:44:18.264Z,24.50
2017-06-09T12:46:45.728Z,24.90
2017-06-09T12:49:13.310Z,25.30
2017-06-09T12:51:41.671Z,26.30
2017-06-09T12:54:09.239Z,26.20
2017-06-09T12:56:37.473Z,26.00
2017-06-09T12:59:04.967Z,25.50
2017-06-09T13:01:32.523Z,25.70
2017-06-09T13:04:00.078Z,26.10
2017-06-09T13:06:27.537Z,26.10
2017-06-09T13:08:55.010Z,26.00
2017-06-09T13:11:23.271Z,26.10
2017-06-09T13:13:50.729Z,26.10
2017-06-09T13:16:18.975Z,26.50
2017-06-09T13:18:46.438Z,26.10
2017-06-09T13:21:13.920Z,26.30
2017-06-09T13:23:42.191Z,26.60
2017-06-09T13:26:09.747Z,26.00
2017-06-09T13:28:37.306Z,26.80
2017-06-09T13:31:04.782Z,26.50
2017-06-09T13:33:33.038Z,26.40
2017-06-09T13:36:00.598Z,26.40
2017-06-09T13:38:28.064Z,26.80
2017-06-09T13:40:56.332Z,26.80
2017-06-09T13:43:23.896Z,26.40
2017-06-09T13:45:52.165Z,26.90
2017-06-09T13:48:20.410Z,27.60
2017-06-09T13:50:47.889Z,27.10
2017-06-09T13:53:15.451Z,27.00
2017-06-09T13:55:43.013Z,26.90
2017-06-09T13:58:10.482Z,27.10
2017-06-09T14:00:38.754Z,27.40
2017-06-09T14:03:07.022Z,28.10
2017-06-09T14:05:34.575Z,28.00
2017-06-09T14:08:02.141Z,27.80
2017-06-09T14:10:29.690Z,27.60
2017-06-09T14:12:57.255Z,27.70
2017-06-09T14:15:24.969Z,27.30
2017-06-09T14:17:52.441Z,26.90
2017-06-09T14:20:19.926Z,26.20
2017-06-09T14:22:48.009Z,26.40
2017-06-09T14:25:16.236Z,26.40
2017-06-09T14:27:43.731Z,26.10
2017-06-09T14:30:11.288Z,26.70
2017-06-09T14:32:38.854Z,26.50
2017-06-09T14:35:06.327Z,25.60
2017-06-09T14:37:34.553Z,25.50
2017-06-09T14:40:02.025Z,25.50
2017-06-09T14:42:29.597Z,25.40
2017-06-09T14:44:57.068Z,25.60
2017-06-09T14:47:25.299Z,25.90
2017-06-09T14:49:52.794Z,25.90
2017-06-09T14:52:21.036Z,25.90
2017-06-09T14:54:48.500Z,25.90
2017-06-09T14:57:15.986Z,26.00
2017-06-09T14:59:44.246Z,26.00
2017-06-09T15:02:11.709Z,26.00
2017-06-09T15:04:40.050Z,26.00
2017-06-09T15:07:07.514Z,26.20
2017-06-09T15:09:35.004Z,26.10
2017-06-09T15:12:03.246Z,26.40
2017-06-09T15:14:31.087Z,26.40
2017-06-09T15:16:58.597Z,26.20
2017-06-09T15:19:26.070Z,26.70
2017-06-09T15:21:54.335Z,26.30
2017-06-09T15:24:22.619Z,27.10
2017-06-09T15:26:50.898Z,26.40
2017-06-09T15:29:19.151Z,26.00
2017-06-09T15:31:46.705Z,26.00
2017-06-09T15:34:14.179Z,26.40
2017-06-09T15:36:42.443Z,27.00
2017-06-09T15:39:09.913Z,27.00
2017-06-09T15:41:38.177Z,26.90
2017-06-09T15:44:06.416Z,27.30
2017-06-09T15:46:33.877Z,27.20
2017-06-09T15:49:01.371Z,27.10
2017-06-09T15:51:29.594Z,27.40
2017-06-09T15:53:57.098Z,27.40
2017-06-09T15:56:25.361Z,28.30
2017-06-09T15:58:52.919Z,28.00
2017-06-09T16:01:20.481Z,28.40
2017-06-09T16:03:48.060Z,28.50
2017-06-09T16:06:16.322Z,28.80
2017-06-09T16:08:43.781Z,28.80
2017-06-09T16:11:11.342Z,29.10
2017-06-09T16:13:39.566Z,29.20
2017-06-09T16:16:07.043Z,29.60
2017-06-09T16:18:34.507Z,28.90
2017-06-09T16:21:01.973Z,29.20
2017-06-09T16:23:29.440Z,29.40
2017-06-09T16:25:56.999Z,29.40
2017-06-09T16:28:24.553Z,29.70
2017-06-09T16:30:52.017Z,29.80
2017-06-09T16:33:20.255Z,29.70
2017-06-09T16:35:47.743Z,30.00
2017-06-09T16:38:15.299Z,30.20
2017-06-09T16:40:42.860Z,30.60
2017-06-09T16:43:10.415Z,31.00
2017-06-09T16:45:37.982Z,30.40
2017-06-09T16:48:06.254Z,31.10
2017-06-09T16:50:33.801Z,30.60
2017-06-09T16:53:01.366Z,30.70
2017-06-09T16:55:28.931Z,31.20
2017-06-09T16:57:56.402Z,31.00
2017-06-09T17:00:24.659Z,31.20
2017-06-09T17:02:52.230Z,31.20
2017-06-09T17:05:20.470Z,30.50
2017-06-09T17:07:47.941Z,30.40
2017-06-09T17:10:15.415Z,30.30
2017-06-09T17:12:43.685Z,31.60
2017-06-09T17:15:11.169Z,31.50
2017-06-09T17:17:38.693Z,32.10
2017-06-09T17:20:06.256Z,32.70
2017-06-09T17:22:33.823Z,33.10
2017-06-09T17:25:02.079Z,35.30
2017-06-09T17:27:29.551Z,35.20
2017-06-09T17:29:57.802Z,42.70
2017-06-09T17:32:25.347Z,42.10
2017-06-09T17:34:52.844Z,43.90
2017-06-09T17:37:21.118Z,45.80
2017-06-09T17:39:48.674Z,45.70
2017-06-09T17:42:16.914Z,47.20
2017-06-09T17:44:44.378Z,47.00
2017-06-09T17:47:11.840Z,47.60
2017-06-09T17:49:39.361Z,48.30
2017-06-09T17:52:06.838Z,48.70
2017-06-09T17:54:34.298Z,49.40
2017-06-09T17:57:01.811Z,50.00
2017-06-09T17:59:30.070Z,50.50
2017-06-09T18:01:58.159Z,50.40
2017-06-09T18:04:25.630Z,51.30
2017-06-09T18:06:53.107Z,51.50
2017-06-09T18:09:20.570Z,52.40
2017-06-09T18:11:48.054Z,52.60
2017-06-09T18:14:15.609Z,53.10
2017-06-09T18:16:43.169Z,53.10
2017-06-09T18:19:10.732Z,53.30
2017-06-09T18:21:38.305Z,53.50
2017-06-09T18:24:06.570Z,53.60
2017-06-09T18:26:34.038Z,53.50
2017-06-09T18:29:02.275Z,54.00
2017-06-09T18:31:29.743Z,53.90
2017-06-09T18:33:57.217Z,53.60
2017-06-09T18:36:24.683Z,53.30
2017-06-09T18:38:52.927Z,53.50
2017-06-09T18:41:20.384Z,53.40
2017-06-09T18:43:47.962Z,53.50
2017-06-09T18:46:16.255Z,52.70
2017-06-09T18:48:44.493Z,53.30
2017-06-09T18:51:11.958Z,53.20
2017-06-09T18:53:39.418Z,53.20
2017-06-09T18:56:06.878Z,53.20
2017-06-09T18:58:34.344Z,53.30
2017-06-09T19:01:02.569Z,53.40
2017-06-09T19:03:30.119Z,53.10
2017-06-09T19:05:57.621Z,53.50
2017-06-09T19:08:25.078Z,53.60
2017-06-09T19:10:52.549Z,53.20
2017-06-09T19:13:20.781Z,53.60
2017-06-09T19:15:48.241Z,53.60
2017-06-09T19:18:15.715Z,54.10
2017-06-09T19:20:43.281Z,54.00
2017-06-09T19:23:10.734Z,54.40
2017-06-09T19:25:38.214Z,55.00
2017-06-09T19:28:06.450Z,56.00
2017-06-09T19:30:33.909Z,55.90
2017-06-09T19:33:01.374Z,56.50
2017-06-09T19:35:28.842Z,57.10
2017-06-09T19:37:56.306Z,57.60
2017-06-09T19:40:23.825Z,58.10
2017-06-09T19:42:51.434Z,58.30
2017-06-09T19:45:19.039Z,58.50
2017-06-09T19:47:46.529Z,58.10
2017-06-09T19:50:13.985Z,58.40
2017-06-09T19:52:41.552Z,58.10
2017-06-09T19:55:09.015Z,58.80
2017-06-09T19:57:37.256Z,58.80
2017-06-09T20:00:05.823Z,58.40
2017-06-09T20:02:33.414Z,58.60
2017-06-09T20:05:00.906Z,58.30
2017-06-09T20:07:28.406Z,58.80
2017-06-09T20:09:55.870Z,59.70
2017-06-09T20:12:23.357Z,60.50
2017-06-09T20:14:51.618Z,62.40
2017-06-09T20:17:19.073Z,61.60
2017-06-09T20:19:46.548Z,62.80
2017-06-09T20:22:14.814Z,61.70
2017-06-09T20:24:42.473Z,61.60
2017-06-09T20:27:09.938Z,62.60
2017-06-09T20:29:37.406Z,62.50
2017-06-09T20:32:05.662Z,62.80
2017-06-09T20:34:33.138Z,62.70
2017-06-09T20:37:01.365Z,62.50
2017-06-09T20:39:28.833Z,62.40
2017-06-09T20:41:56.298Z,62.90
2017-06-09T20:44:23.769Z,62.70
2017-06-09T20:46:52.006Z,64.10
2017-06-09T20:49:19.502Z,63.70
2017-06-09T20:51:47.730Z,63.30
2017-06-09T20:54:15.204Z,63.20
2017-06-09T20:56:42.657Z,63.90
2017-06-09T20:59:10.139Z,63.90
2017-06-09T21:01:37.604Z,63.20
2017-06-09T21:04:05.879Z,64.30
2017-06-09T21:06:33.426Z,64.20
2017-06-09T21:09:00.899Z,63.40
2017-06-09T21:11:29.167Z,63.70
2017-06-09T21:13:57.415Z,63.10
2017-06-09T21:16:24.990Z,63.10
2017-06-09T21:18:52.462Z,62.70
2017-06-09T21:21:20.697Z,63.00
2017-06-09T21:23:48.171Z,62.90
2017-06-09T21:26:15.751Z,62.70
2017-06-09T21:28:44.019Z,62.60
2017-06-09T21:31:12.263Z,62.70
2017-06-09T21:33:39.745Z,62.10
2017-06-09T21:36:07.308Z,62.40
2017-06-09T21:38:34.862Z,62.60
2017-06-09T21:41:02.428Z,62.30
2017-06-09T21:43:30.662Z,63.20
2017-06-09T21:45:58.155Z,62.60
2017-06-09T21:48:25.714Z,62.10
2017-06-09T21:50:53.269Z,61.90
2017-06-09T21:53:20.839Z,62.20
2017-06-09T21:55:49.066Z,63.00
2017-06-09T21:58:16.571Z,62.10
2017-06-09T22:00:44.039Z,61.80
2017-06-09T22:03:12.299Z,62.20
2017-06-09T22:05:39.765Z,62.20
2017-06-09T22:08:07.225Z,62.00
2017-06-09T22:10:35.465Z,61.60
2017-06-09T22:13:02.938Z,61.40
2017-06-09T22:15:30.403Z,61.40
2017-06-09T22:17:57.870Z,62.30
2017-06-09T22:20:26.126Z,62.90
2017-06-09T22:22:53.603Z,62.90
2017-06-09T22:25:21.838Z,63.20
2017-06-09T22:27:49.327Z,63.20
2017-06-09T22:30:17.564Z,62.70
2017-06-09T22:32:45.031Z,62.70
2017-06-09T22:35:12.504Z,62.70
2017-06-09T22:37:39.976Z,62.40
2017-06-09T22:40:08.215Z,62.70
2017-06-09T22:42:35.683Z,62.60
2017-06-09T22:45:03.159Z,62.90
2017-06-09T22:47:31.385Z,62.80
2017-06-09T22:49:58.850Z,62.40
2017-06-09T22:52:26.315Z,62.80
2017-06-09T22:54:53.777Z,62.60
2017-06-09T22:57:21.249Z,62.60
2017-06-09T22:59:48.736Z,62.50
2017-06-09T23:02:16.237Z,62.30
2017-06-09T23:04:43.701Z,63.00
2017-06-09T23:07:11.175Z,62.20
2017-06-09T23:09:38.667Z,62.40
2017-06-09T23:12:06.195Z,62.40
2017-06-09T23:14:33.658Z,62.90
2017-06-09T23:17:01.898Z,64.00
2017-06-09T23:19:29.364Z,63.10
2017-06-09T23:21:56.834Z,63.00
2017-06-09T23:24:29.920Z,63.00
2017-06-09T23:27:03.162Z,63.10
2017-06-09T23:29:30.622Z,63.50
2017-06-09T23:31:58.101Z,63.00
2017-06-09T23:34:25.573Z,63.10
2017-06-09T23:36:53.041Z,62.70
2017-06-09T23:39:20.513Z,62.20
2017-06-09T23:41:48.754Z,62.50
2017-06-09T23:44:16.218Z,62.40
2017-06-09T23:46:43.686Z,62.50
2017-06-09T23:49:11.145Z,62.80
2017-06-09T23:51:38.610Z,62.70
2017-06-09T23:54:06.846Z,62.50
2017-06-09T23:56:34.332Z,62.50
2017-06-09T23:59:01.790Z,62.50
